Time;durP1;ratioP1;P1;durP2;ratioP2;P2;SDS_P1;SDS_P2;PMS_P1;PMS_P2;Temp;Humidity;BMP_temperature;BMP_pressure;BME280_temperature;BME280_humidity;BME280_pressure;Samples;Min_cycle;Max_cycle;Signal;HPM_P1;HPM_P2
2023/06/16 00:01:14;;;;;;;13.73;12.43;;;17.40;73.40;;;;;;5135766;27;20035;-76
2023/06/16 00:03:41;;;;;;;13.52;12.23;;;17.30;74.00;;;;;;5118942;27;20122;-76
2023/06/16 00:06:13;;;;;;;13.98;12.50;;;17.30;74.10;;;;;;5135728;27;20088;-76
2023/06/16 00:08:54;;;;;;;14.13;12.60;;;17.30;75.10;;;;;;5103263;27;20032;-76
2023/06/16 00:11:20;;;;;;;13.82;12.40;;;17.30;75.60;;;;;;5135639;27;20039;-76
2023/06/16 00:13:48;;;;;;;14.65;13.23;;;17.20;75.30;;;;;;5118217;27;20094;-76
2023/06/16 00:16:19;;;;;;;14.23;12.73;;;17.20;75.40;;;;;;5135540;27;20043;-76
2023/06/16 00:18:51;;;;;;;12.02;10.93;;;17.20;75.70;;;;;;5135723;27;20188;-77
2023/06/16 00:21:25;;;;;;;17.25;12.25;;;17.20;75.90;;;;;;5135487;27;20099;-76
2023/06/16 00:23:52;;;;;;;15.43;12.88;;;17.20;75.90;;;;;;5135236;27;20059;-76
2023/06/16 00:26:17;;;;;;;13.40;12.18;;;17.20;75.80;;;;;;5135311;27;20514;-76
2023/06/16 00:28:43;;;;;;;15.55;13.85;;;17.20;76.00;;;;;;5118051;27;20070;-76
2023/06/16 00:31:09;;;;;;;15.93;13.05;;;17.10;75.90;;;;;;5118184;27;20031;-75
2023/06/16 00:33:35;;;;;;;14.95;13.40;;;17.10;76.20;;;;;;5134662;27;20042;-76
2023/06/16 00:36:01;;;;;;;14.75;12.98;;;17.00;76.60;;;;;;5117938;27;20031;-76
2023/06/16 00:38:28;;;;;;;14.25;12.85;;;16.90;76.80;;;;;;5117587;27;20478;-76
2023/06/16 00:40:54;;;;;;;13.82;11.85;;;16.90;77.00;;;;;;5134919;27;20071;-76
2023/06/16 00:43:19;;;;;;;11.43;10.32;;;16.80;77.10;;;;;;5117633;27;20147;-76
2023/06/16 00:45:45;;;;;;;13.25;11.00;;;16.70;77.20;;;;;;5135115;27;20035;-76
2023/06/16 00:48:11;;;;;;;11.63;10.43;;;16.70;77.20;;;;;;5134723;27;20491;-76
2023/06/16 00:50:37;;;;;;;21.05;10.60;;;16.70;77.30;;;;;;5117476;27;20043;-76
2023/06/16 00:53:03;;;;;;;11.45;9.95;;;16.70;77.20;;;;;;5134437;27;20043;-76
2023/06/16 00:55:29;;;;;;;12.02;10.80;;;16.80;77.10;;;;;;5134663;27;20129;-76
2023/06/16 00:57:55;;;;;;;13.57;12.25;;;16.80;77.00;;;;;;5117179;27;20502;-76
2023/06/16 01:00:21;;;;;;;17.08;13.02;;;16.80;77.00;;;;;;5117015;27;20126;-76
2023/06/16 01:02:48;;;;;;;12.65;10.68;;;16.80;77.10;;;;;;5116998;27;20398;-76
2023/06/16 01:05:17;;;;;;;15.40;13.43;;;16.80;77.10;;;;;;5134104;27;20039;-76
2023/06/16 01:08:09;;;;;;;13.68;12.43;;;16.80;77.20;;;;;;5134075;27;20122;-76
2023/06/16 01:10:55;;;;;;;13.85;12.45;;;16.80;77.80;;;;;;5134252;27;20043;-75
2023/06/16 01:13:46;;;;;;;14.10;12.63;;;16.70;77.50;;;;;;5134147;27;20100;-75
2023/06/16 01:16:13;;;;;;;14.35;12.85;;;16.80;77.90;;;;;;5134316;27;20047;-75
2023/06/16 01:18:43;;;;;;;14.48;13.10;;;16.80;77.70;;;;;;5117262;27;20031;-76
2023/06/16 01:21:25;;;;;;;14.52;12.98;;;16.70;77.70;;;;;;5134362;27;20035;-76
2023/06/16 01:23:56;;;;;;;14.20;12.82;;;16.70;78.00;;;;;;5133734;27;20101;-75
2023/06/16 01:26:24;;;;;;;14.00;12.68;;;16.70;78.10;;;;;;5134225;27;20080;-75
2023/06/16 01:28:51;;;;;;;14.73;13.20;;;16.60;78.20;;;;;;5134248;27;20039;-76
2023/06/16 01:31:19;;;;;;;22.88;14.15;;;16.60;78.30;;;;;;5116616;27;20038;-75
2023/06/16 01:33:47;;;;;;;18.60;14.20;;;16.50;78.50;;;;;;5133729;27;20039;-75
2023/06/16 01:36:15;;;;;;;13.15;11.95;;;16.50;78.50;;;;;;5133697;27;20038;-75
2023/06/16 01:38:43;;;;;;;14.60;13.20;;;16.50;78.70;;;;;;5133714;27;20035;-75
2023/06/16 01:41:10;;;;;;;14.57;13.07;;;16.50;79.20;;;;;;5133499;27;20039;-77
2023/06/16 01:43:37;;;;;;;12.93;11.65;;;16.50;79.30;;;;;;5116747;27;20042;-76
2023/06/16 01:46:03;;;;;;;14.75;13.23;;;16.40;79.20;;;;;;5099767;27;20043;-76
2023/06/16 01:48:29;;;;;;;16.23;13.98;;;16.40;79.20;;;;;;5133683;27;20057;-76
2023/06/16 01:50:55;;;;;;;16.90;15.20;;;16.40;79.30;;;;;;5133452;27;20054;-76
2023/06/16 01:53:21;;;;;;;14.93;13.45;;;16.30;79.30;;;;;;5133506;27;20039;-77
2023/06/16 01:55:51;;;;;;;12.63;11.48;;;16.30;79.50;;;;;;5133487;27;20088;-76
2023/06/16 01:58:20;;;;;;;16.95;14.25;;;16.30;79.60;;;;;;5133609;27;20072;-76
2023/06/16 02:00:54;;;;;;;16.52;14.73;;;16.30;79.80;;;;;;5116055;27;20042;-76
2023/06/16 02:03:28;;;;;;;18.05;16.27;;;16.30;79.70;;;;;;5116062;27;20038;-77
2023/06/16 02:05:58;;;;;;;16.60;14.90;;;16.20;79.90;;;;;;5133633;27;20046;-76
2023/06/16 02:08:27;;;;;;;16.98;15.15;;;16.30;80.20;;;;;;5116260;27;20035;-76
2023/06/16 02:10:54;;;;;;;16.65;14.73;;;16.20;80.10;;;;;;5116098;27;20119;-76
2023/06/16 02:13:20;;;;;;;16.58;14.77;;;16.20;80.10;;;;;;5116501;27;20035;-76
2023/06/16 02:15:47;;;;;;;16.83;15.13;;;16.20;80.30;;;;;;5133094;27;20471;-76
2023/06/16 02:18:12;;;;;;;16.85;15.18;;;16.10;80.20;;;;;;5116028;28;20506;-76
2023/06/16 02:20:39;;;;;;;17.48;15.68;;;16.10;80.20;;;;;;5115982;27;20108;-76
2023/06/16 02:23:05;;;;;;;17.58;15.77;;;16.10;80.30;;;;;;5098730;27;20047;-77
2023/06/16 02:25:31;;;;;;;17.27;15.48;;;16.10;80.40;;;;;;5082246;28;20049;-76
2023/06/16 02:27:56;;;;;;;18.08;14.82;;;16.10;80.50;;;;;;5133291;28;20122;-76
2023/06/16 02:30:22;;;;;;;15.35;13.85;;;16.00;80.40;;;;;;5116250;28;20043;-76
2023/06/16 02:32:48;;;;;;;15.60;14.05;;;16.00;80.40;;;;;;5133110;28;20088;-76
2023/06/16 02:35:14;;;;;;;17.55;15.95;;;16.00;80.40;;;;;;5116337;28;20043;-76
2023/06/16 02:37:41;;;;;;;17.08;15.27;;;16.00;80.30;;;;;;5133018;28;20078;-76
2023/06/16 02:40:08;;;;;;;19.83;15.93;;;15.90;80.40;;;;;;5133199;28;20096;-76
2023/06/16 02:42:34;;;;;;;21.40;18.60;;;15.90;80.50;;;;;;5115906;28;20071;-76
2023/06/16 02:45:00;;;;;;;20.45;17.73;;;15.90;80.70;;;;;;5133225;28;20031;-76
2023/06/16 02:47:26;;;;;;;18.90;16.13;;;15.80;80.70;;;;;;5133343;28;20067;-76
2023/06/16 02:49:54;;;;;;;19.50;16.90;;;15.70;80.80;;;;;;5133049;28;20073;-77
2023/06/16 02:52:20;;;;;;;19.05;16.63;;;15.60;80.90;;;;;;5133214;28;20054;-76
2023/06/16 02:54:46;;;;;;;20.42;17.80;;;15.60;80.80;;;;;;5099329;28;20046;-76
2023/06/16 02:57:12;;;;;;;24.60;18.13;;;15.60;80.90;;;;;;5132830;28;20097;-76
2023/06/16 02:59:37;;;;;;;18.10;15.80;;;15.50;81.20;;;;;;5115826;28;20039;-76
2023/06/16 03:02:03;;;;;;;19.20;16.05;;;15.50;81.00;;;;;;5114785;28;20046;-77
2023/06/16 03:04:29;;;;;;;19.20;17.13;;;15.50;81.10;;;;;;5115352;28;20122;-77
2023/06/16 03:06:58;;;;;;;18.52;16.30;;;15.40;81.30;;;;;;5114883;28;20402;-76
2023/06/16 03:09:26;;;;;;;17.33;15.30;;;15.40;81.30;;;;;;5132187;28;20426;-76
2023/06/16 03:11:53;;;;;;;18.83;16.92;;;15.30;81.50;;;;;;5114860;28;20106;-77
2023/06/16 03:14:20;;;;;;;17.02;15.27;;;15.30;81.60;;;;;;5115289;28;20083;-76
2023/06/16 03:16:48;;;;;;;21.50;16.55;;;15.30;81.50;;;;;;5132696;28;20104;-76
2023/06/16 03:19:18;;;;;;;18.05;15.75;;;15.20;81.60;;;;;;5115399;28;20043;-76
2023/06/16 03:21:44;;;;;;;17.92;16.20;;;15.20;81.90;;;;;;5098827;28;20115;-76
2023/06/16 03:24:13;;;;;;;18.63;16.73;;;15.10;81.90;;;;;;5115660;28;20138;-76
2023/06/16 03:26:39;;;;;;;18.50;16.55;;;15.20;81.90;;;;;;5099009;28;20035;-76
2023/06/16 03:29:06;;;;;;;19.83;17.92;;;15.10;82.00;;;;;;5098259;28;20051;-76
2023/06/16 03:31:32;;;;;;;20.80;18.65;;;15.20;82.10;;;;;;5115681;28;20047;-77
2023/06/16 03:33:58;;;;;;;19.10;17.10;;;15.20;82.20;;;;;;5116897;27;20061;-76
2023/06/16 03:36:25;;;;;;;20.08;18.08;;;15.20;82.40;;;;;;5136377;27;20039;-76
2023/06/16 03:38:51;;;;;;;19.92;17.85;;;15.20;82.60;;;;;;5135860;27;20039;-76
2023/06/16 03:41:17;;;;;;;19.63;17.67;;;15.10;82.60;;;;;;5135860;27;20119;-76
2023/06/16 03:43:42;;;;;;;19.48;17.38;;;15.10;82.70;;;;;;5118539;27;20069;-76
2023/06/16 03:46:08;;;;;;;21.55;17.90;;;15.10;82.90;;;;;;5119241;27;20081;-76
2023/06/16 03:48:34;;;;;;;19.23;17.17;;;15.10;82.90;;;;;;5136036;27;20035;-76
2023/06/16 03:51:00;;;;;;;20.20;18.25;;;15.20;83.00;;;;;;5101639;27;20084;-76
2023/06/16 03:53:27;;;;;;;20.70;18.70;;;15.20;83.00;;;;;;5135382;27;20042;-77
2023/06/16 03:55:52;;;;;;;21.50;19.40;;;15.20;82.90;;;;;;5118724;27;20047;-77
2023/06/16 03:58:18;;;;;;;20.80;18.80;;;15.30;83.50;;;;;;5135349;27;20065;-76
2023/06/16 04:00:44;;;;;;;21.70;19.60;;;15.30;83.30;;;;;;5101808;27;20042;-76
2023/06/16 04:03:12;;;;;;;23.33;20.63;;;15.30;83.70;;;;;;5118635;27;20035;-76
2023/06/16 04:05:38;;;;;;;22.63;20.33;;;15.30;83.70;;;;;;5135847;27;20035;-77
2023/06/16 04:08:04;;;;;;;23.88;21.42;;;15.30;83.60;;;;;;5135649;27;20039;-76
2023/06/16 04:10:29;;;;;;;24.23;21.83;;;15.30;84.10;;;;;;5135534;27;20043;-76
2023/06/16 04:12:55;;;;;;;25.42;22.67;;;15.30;84.10;;;;;;5135335;27;20042;-76
2023/06/16 04:15:21;;;;;;;25.52;22.55;;;15.40;84.30;;;;;;5118579;27;20039;-77
2023/06/16 04:17:46;;;;;;;28.60;25.70;;;15.30;84.20;;;;;;5135912;27;20043;-78
2023/06/16 04:20:13;;;;;;;26.98;24.08;;;15.30;84.30;;;;;;5135647;27;20061;-77
2023/06/16 04:22:40;;;;;;;29.95;26.73;;;15.30;84.50;;;;;;5117974;27;20049;-77
2023/06/16 04:25:08;;;;;;;30.65;27.50;;;15.40;84.50;;;;;;5118393;27;20057;-77
2023/06/16 04:27:36;;;;;;;20.80;18.67;;;15.40;84.80;;;;;;5135479;27;20074;-76
2023/06/16 04:30:05;;;;;;;28.38;25.40;;;15.40;84.90;;;;;;5118526;27;20035;-77
2023/06/16 04:32:34;;;;;;;30.63;27.52;;;15.50;84.70;;;;;;5118852;27;20485;-75
2023/06/16 04:35:03;;;;;;;34.47;30.58;;;15.60;84.50;;;;;;5117412;27;20039;-77
2023/06/16 04:37:29;;;;;;;30.63;27.45;;;15.60;84.50;;;;;;5135065;27;20078;-77
2023/06/16 04:39:55;;;;;;;28.77;25.88;;;15.70;84.60;;;;;;5117747;27;20047;-78
2023/06/16 04:42:21;;;;;;;31.63;28.17;;;15.70;84.60;;;;;;5117739;27;20398;-76
2023/06/16 04:44:47;;;;;;;29.30;26.20;;;15.80;84.80;;;;;;5117404;27;20036;-76
2023/06/16 04:47:12;;;;;;;30.35;27.08;;;15.90;84.70;;;;;;5117614;27;20059;-78
2023/06/16 04:49:38;;;;;;;27.27;24.42;;;15.90;84.70;;;;;;5117366;27;20074;-77
2023/06/16 04:52:06;;;;;;;26.08;23.45;;;16.00;84.90;;;;;;5117670;27;20054;-79
2023/06/16 04:54:32;;;;;;;28.33;25.45;;;16.00;84.80;;;;;;5100780;27;20043;-75
2023/06/16 04:56:58;;;;;;;33.58;30.10;;;16.00;84.80;;;;;;5134199;27;20501;-75
2023/06/16 04:59:25;;;;;;;28.48;25.20;;;16.00;84.80;;;;;;5134172;27;20045;-75
2023/06/16 05:01:51;;;;;;;29.05;25.92;;;16.10;85.20;;;;;;5117103;27;20395;-75
2023/06/16 05:04:17;;;;;;;28.48;25.55;;;16.20;85.10;;;;;;5134499;27;20039;-75
2023/06/16 05:06:43;;;;;;;27.63;24.70;;;16.20;85.00;;;;;;5134209;27;20120;-75
2023/06/16 05:09:09;;;;;;;30.40;27.40;;;16.20;85.00;;;;;;5117060;27;20061;-75
2023/06/16 05:11:34;;;;;;;24.17;21.67;;;16.30;84.90;;;;;;5134375;27;20084;-76
2023/06/16 05:14:00;;;;;;;25.17;22.67;;;16.40;85.10;;;;;;5134147;27;20035;-76
2023/06/16 05:16:26;;;;;;;30.77;26.42;;;16.50;85.00;;;;;;5116814;27;20039;-75
2023/06/16 05:18:52;;;;;;;28.80;25.83;;;16.50;84.80;;;;;;5134242;27;20043;-76
2023/06/16 05:21:24;;;;;;;25.42;22.90;;;16.70;84.90;;;;;;5116908;27;20039;-76
2023/06/16 05:23:51;;;;;;;22.30;19.95;;;16.70;85.00;;;;;;5133840;27;20062;-75
2023/06/16 05:26:18;;;;;;;25.20;22.58;;;16.80;84.90;;;;;;5117384;27;20058;-76
2023/06/16 05:28:44;;;;;;;26.75;24.05;;;16.90;84.70;;;;;;5134074;27;20039;-75
2023/06/16 05:31:09;;;;;;;24.83;21.90;;;16.90;84.70;;;;;;5116736;27;20050;-76
2023/06/16 05:33:35;;;;;;;18.70;16.80;;;17.00;85.00;;;;;;5116637;27;20050;-76
2023/06/16 05:36:01;;;;;;;18.23;16.42;;;17.10;84.70;;;;;;5116732;27;20031;-76
2023/06/16 05:38:26;;;;;;;16.92;14.10;;;17.20;84.30;;;;;;5099825;27;20031;-76
2023/06/16 05:40:52;;;;;;;18.70;16.65;;;17.20;84.00;;;;;;5117202;27;20127;-76
2023/06/16 05:43:18;;;;;;;20.42;18.23;;;17.30;83.50;;;;;;5116612;27;20504;-75
2023/06/16 05:45:43;;;;;;;16.42;14.82;;;17.40;83.10;;;;;;5099800;27;20436;-76
2023/06/16 05:48:09;;;;;;;15.55;14.05;;;17.50;82.20;;;;;;5133839;27;20414;-78
2023/06/16 05:50:35;;;;;;;14.00;12.50;;;17.50;81.90;;;;;;5117025;27;20123;-78
2023/06/16 05:53:00;;;;;;;15.73;14.07;;;17.50;81.30;;;;;;5133840;27;20406;-77
2023/06/16 05:55:26;;;;;;;16.55;14.90;;;17.70;81.10;;;;;;5099710;27;20042;-76
2023/06/16 05:57:52;;;;;;;18.02;15.38;;;17.70;81.30;;;;;;5099336;27;20042;-77
2023/06/16 06:00:18;;;;;;;16.70;15.02;;;17.80;81.10;;;;;;5133904;27;20043;-76
2023/06/16 06:02:43;;;;;;;16.35;14.02;;;17.80;80.70;;;;;;5116498;27;20456;-78
2023/06/16 06:05:09;;;;;;;15.27;13.77;;;17.90;80.00;;;;;;5116716;27;20061;-77
2023/06/16 06:07:35;;;;;;;17.50;15.57;;;18.00;79.70;;;;;;5099496;27;20134;-76
2023/06/16 06:10:01;;;;;;;20.08;15.52;;;18.00;79.30;;;;;;5133206;27;20035;-76
2023/06/16 06:12:26;;;;;;;17.30;15.50;;;18.00;79.40;;;;;;5116135;27;20126;-78
2023/06/16 06:14:52;;;;;;;16.50;14.75;;;18.20;79.20;;;;;;5133154;27;20042;-77
2023/06/16 06:17:18;;;;;;;19.83;15.10;;;18.30;79.30;;;;;;5116767;27;20087;-76
2023/06/16 06:19:43;;;;;;;14.60;13.13;;;18.30;79.00;;;;;;5099474;28;20043;-77
2023/06/16 06:22:09;;;;;;;15.85;14.18;;;18.40;79.10;;;;;;5133260;27;20035;-77
2023/06/16 06:24:35;;;;;;;14.90;12.85;;;18.40;78.30;;;;;;5098818;28;20061;-77
2023/06/16 06:27:00;;;;;;;15.23;12.50;;;18.50;77.90;;;;;;5099400;28;20042;-78
2023/06/16 06:29:26;;;;;;;13.98;12.40;;;18.60;76.70;;;;;;5104318;28;20114;-76
2023/06/16 06:31:52;;;;;;;19.20;12.25;;;18.60;75.90;;;;;;5123296;28;20034;-78
2023/06/16 06:34:17;;;;;;;14.35;11.02;;;18.60;75.50;;;;;;5131415;28;20039;-77
2023/06/16 06:36:45;;;;;;;10.98;9.90;;;18.70;75.00;;;;;;5115929;28;20039;-77
2023/06/16 06:39:10;;;;;;;13.98;11.48;;;18.90;73.40;;;;;;5116116;28;20126;-80
2023/06/16 06:41:36;;;;;;;10.80;9.73;;;18.90;73.50;;;;;;5132949;28;20126;-78
2023/06/16 06:44:02;;;;;;;11.77;10.25;;;19.00;73.30;;;;;;5099181;28;20118;-77
2023/06/16 06:46:28;;;;;;;10.38;9.38;;;19.00;72.20;;;;;;5116068;28;20034;-78
2023/06/16 06:48:55;;;;;;;10.70;9.60;;;19.10;72.10;;;;;;5116602;28;20027;-78
2023/06/16 06:51:20;;;;;;;9.80;8.70;;;19.20;72.60;;;;;;5115757;28;20387;-78
2023/06/16 06:53:46;;;;;;;12.68;9.25;;;19.30;72.60;;;;;;5098694;28;20042;-82
2023/06/16 06:56:12;;;;;;;10.95;8.27;;;19.40;72.20;;;;;;5098672;28;20039;-81
2023/06/16 06:58:37;;;;;;;10.02;8.70;;;19.40;71.90;;;;;;5115920;28;20076;-81
2023/06/16 07:01:03;;;;;;;9.00;7.30;;;19.50;71.70;;;;;;5115847;28;20035;-81
2023/06/16 07:03:29;;;;;;;9.63;8.50;;;19.60;71.50;;;;;;5132712;28;20074;-81
2023/06/16 07:05:54;;;;;;;9.88;8.43;;;19.70;71.10;;;;;;5099015;28;20031;-80
2023/06/16 07:08:20;;;;;;;10.80;8.40;;;19.80;70.60;;;;;;5101436;27;20071;-80
2023/06/16 07:10:46;;;;;;;11.15;8.55;;;19.90;70.50;;;;;;5119979;27;20418;-81
2023/06/16 07:13:11;;;;;;;7.65;6.82;;;20.00;70.40;;;;;;5102802;27;20039;-80
2023/06/16 07:15:37;;;;;;;7.90;7.03;;;20.10;70.40;;;;;;5120127;27;20049;-81
2023/06/16 07:18:03;;;;;;;8.32;7.53;;;20.10;69.80;;;;;;5103048;27;20126;-81
2023/06/16 07:20:29;;;;;;;7.07;6.13;;;20.20;69.40;;;;;;5119643;27;20504;-81
2023/06/16 07:22:55;;;;;;;8.13;7.30;;;20.30;68.20;;;;;;5119397;27;20043;-81
2023/06/16 07:25:20;;;;;;;9.20;7.38;;;20.40;67.90;;;;;;5085814;27;20047;-81
2023/06/16 07:27:46;;;;;;;8.88;6.63;;;20.40;67.90;;;;;;5103103;27;20073;-81
2023/06/16 07:30:12;;;;;;;7.28;6.35;;;20.50;67.20;;;;;;5103543;27;20058;-79
2023/06/16 07:32:39;;;;;;;7.70;6.75;;;20.50;66.10;;;;;;5137022;27;20043;-80
2023/06/16 07:35:06;;;;;;;8.73;6.55;;;20.50;66.20;;;;;;5119826;27;20047;-80
2023/06/16 07:37:32;;;;;;;6.53;5.72;;;20.60;66.10;;;;;;5137434;27;20122;-80
2023/06/16 07:39:58;;;;;;;7.07;6.40;;;20.60;65.20;;;;;;5120167;27;20046;-80
2023/06/16 07:42:24;;;;;;;5.82;5.25;;;20.70;64.60;;;;;;5102867;27;20039;-80
2023/06/16 07:44:51;;;;;;;6.43;5.53;;;20.90;64.10;;;;;;5102727;27;20057;-80
2023/06/16 07:47:16;;;;;;;7.72;6.28;;;20.90;63.00;;;;;;5120114;27;20100;-79
2023/06/16 07:49:42;;;;;;;6.97;5.50;;;21.00;61.70;;;;;;5085417;27;20039;-78
2023/06/16 07:52:09;;;;;;;5.78;5.18;;;21.10;61.60;;;;;;5118613;27;20049;-78
2023/06/16 07:54:35;;;;;;;6.68;5.78;;;21.30;61.20;;;;;;5119127;27;20047;-79
2023/06/16 07:57:00;;;;;;;5.43;4.88;;;21.40;60.80;;;;;;5084557;27;20118;-79
2023/06/16 07:59:26;;;;;;;6.10;4.75;;;21.50;59.80;;;;;;5118765;27;20051;-81
2023/06/16 08:01:52;;;;;;;6.95;4.60;;;21.50;58.20;;;;;;5102075;27;20482;-79
2023/06/16 08:04:18;;;;;;;7.63;5.00;;;21.60;58.20;;;;;;5119057;27;20039;-81
2023/06/16 08:06:43;;;;;;;4.38;3.95;;;21.70;56.90;;;;;;5102408;27;20067;-81
2023/06/16 08:09:10;;;;;;;5.32;3.80;;;21.70;56.80;;;;;;5102080;27;20035;-81
2023/06/16 08:11:36;;;;;;;4.32;3.72;;;21.80;54.30;;;;;;5101639;27;20042;-81
2023/06/16 08:14:02;;;;;;;3.92;3.53;;;21.90;53.70;;;;;;5119006;27;20035;-81
2023/06/16 08:16:28;;;;;;;4.75;3.42;;;22.00;52.80;;;;;;5102167;27;20039;-81
2023/06/16 08:18:56;;;;;;;5.95;3.75;;;22.00;50.40;;;;;;5084857;28;20031;-81
2023/06/16 08:21:22;;;;;;;3.95;3.55;;;22.10;50.80;;;;;;5085515;27;20495;-80
2023/06/16 08:23:48;;;;;;;4.88;3.40;;;22.10;49.40;;;;;;5101809;27;20514;-81
2023/06/16 08:26:14;;;;;;;4.82;2.97;;;22.20;49.20;;;;;;5102003;27;20039;-80
2023/06/16 08:28:40;;;;;;;3.72;3.13;;;22.30;47.90;;;;;;5119070;27;20035;-79
2023/06/16 08:31:06;;;;;;;4.35;2.65;;;22.30;48.90;;;;;;5118277;27;20036;-80
2023/06/16 08:33:32;;;;;;;5.18;2.78;;;22.40;47.10;;;;;;5118386;27;20372;-80
2023/06/16 08:35:57;;;;;;;5.53;3.00;;;22.40;47.00;;;;;;5101385;27;20046;-80
2023/06/16 08:38:23;;;;;;;4.80;2.78;;;22.50;47.20;;;;;;5135282;27;20495;-80
2023/06/16 08:40:49;;;;;;;6.10;2.92;;;22.50;46.40;;;;;;5101106;27;20035;-81
2023/06/16 08:43:16;;;;;;;5.45;2.95;;;22.60;44.80;;;;;;5084342;27;20047;-81
2023/06/16 08:45:45;;;;;;;5.78;3.17;;;22.70;42.80;;;;;;5135065;27;20398;-80
2023/06/16 08:48:11;;;;;;;3.33;2.63;;;22.70;43.80;;;;;;5118325;27;20475;-81
2023/06/16 08:50:38;;;;;;;3.67;2.50;;;22.80;44.00;;;;;;5117920;27;20039;-79
2023/06/16 08:53:08;;;;;;;4.80;2.63;;;22.80;42.90;;;;;;5135526;27;20085;-79
2023/06/16 08:55:37;;;;;;;3.58;2.55;;;22.90;43.60;;;;;;5134889;27;20047;-78
2023/06/16 08:58:05;;;;;;;3.78;2.30;;;22.90;44.20;;;;;;5135491;27;20042;-78
2023/06/16 09:00:32;;;;;;;5.72;2.83;;;23.00;44.20;;;;;;5117717;27;20054;-80
2023/06/16 09:02:59;;;;;;;6.40;2.40;;;23.00;43.10;;;;;;5117817;27;20035;-79
2023/06/16 09:05:26;;;;;;;6.35;2.58;;;23.10;43.40;;;;;;5117681;27;20039;-79
2023/06/16 09:07:52;;;;;;;4.47;2.50;;;23.10;43.60;;;;;;5134659;27;20031;-80
2023/06/16 09:10:19;;;;;;;4.15;2.65;;;23.20;43.40;;;;;;5100761;27;20092;-78
2023/06/16 09:12:50;;;;;;;3.55;2.50;;;23.30;43.00;;;;;;5117854;27;20063;-79
2023/06/16 09:15:16;;;;;;;6.18;3.15;;;23.30;44.00;;;;;;5135019;27;20511;-80
2023/06/16 09:17:42;;;;;;;3.40;2.10;;;23.30;42.80;;;;;;5084548;27;20047;-78
2023/06/16 09:20:16;;;;;;;2.80;2.47;;;23.40;42.90;;;;;;5117748;27;20049;-79
2023/06/16 09:22:42;;;;;;;7.68;2.45;;;23.40;42.50;;;;;;5134564;27;20063;-78
2023/06/16 09:25:12;;;;;;;4.70;2.50;;;23.50;42.30;;;;;;5134536;27;20062;-79
2023/06/16 09:27:49;;;;;;;3.00;2.20;;;23.60;40.70;;;;;;5117231;27;20038;-79
2023/06/16 09:30:20;;;;;;;2.97;2.60;;;23.60;40.40;;;;;;5134627;27;20502;-78
2023/06/16 09:32:47;;;;;;;4.22;2.50;;;23.60;41.10;;;;;;5116783;27;20084;-78
2023/06/16 09:35:20;;;;;;;3.80;2.53;;;23.60;40.30;;;;;;5117094;27;20048;-78
2023/06/16 09:37:47;;;;;;;7.28;2.70;;;23.70;40.70;;;;;;5100046;27;20078;-78
2023/06/16 09:40:15;;;;;;;4.07;2.50;;;23.80;40.00;;;;;;5116570;27;20039;-78
2023/06/16 09:42:42;;;;;;;3.25;2.60;;;23.80;39.50;;;;;;5116524;27;20558;-79
2023/06/16 09:45:15;;;;;;;3.22;2.88;;;23.80;39.80;;;;;;5117134;27;20087;-79
2023/06/16 09:47:45;;;;;;;5.75;2.20;;;23.90;40.20;;;;;;5117457;27;20391;-79
2023/06/16 09:50:16;;;;;;;4.78;2.88;;;24.00;40.00;;;;;;5117314;27;20037;-79
2023/06/16 09:52:47;;;;;;;6.43;3.65;;;24.10;39.30;;;;;;5116590;27;20043;-79
2023/06/16 09:55:14;;;;;;;4.60;2.72;;;24.20;39.70;;;;;;5117147;27;20062;-79
2023/06/16 09:57:45;;;;;;;5.15;3.08;;;24.20;39.00;;;;;;5117163;27;20512;-78
2023/06/16 10:00:16;;;;;;;4.95;3.10;;;24.30;38.60;;;;;;5116864;27;20039;-79
2023/06/16 10:02:43;;;;;;;4.85;3.03;;;24.40;39.90;;;;;;5133750;27;20049;-79
2023/06/16 10:05:10;;;;;;;3.45;2.75;;;24.50;39.50;;;;;;5116877;27;20031;-78
2023/06/16 10:07:41;;;;;;;3.10;2.80;;;24.70;39.50;;;;;;5117209;27;20122;-79
2023/06/16 10:10:10;;;;;;;3.92;2.63;;;24.80;38.90;;;;;;5133698;27;20118;-78
2023/06/16 10:12:47;;;;;;;3.17;2.55;;;24.90;38.30;;;;;;5133003;27;20498;-79
2023/06/16 10:15:23;;;;;;;4.20;3.13;;;24.90;39.00;;;;;;5134036;27;20039;-79
2023/06/16 10:17:50;;;;;;;5.75;2.83;;;25.00;38.40;;;;;;5133990;27;20043;-78
2023/06/16 10:20:18;;;;;;;7.65;2.88;;;25.10;39.20;;;;;;5116393;28;20043;-78
2023/06/16 10:22:45;;;;;;;5.00;2.80;;;25.10;39.70;;;;;;5133617;27;20375;-79
2023/06/16 10:25:11;;;;;;;4.65;3.35;;;25.20;39.00;;;;;;5116540;27;20373;-79
2023/06/16 10:27:40;;;;;;;5.80;3.17;;;25.30;38.80;;;;;;5134175;27;20039;-79
2023/06/16 10:30:19;;;;;;;5.22;3.15;;;25.30;38.70;;;;;;5117090;28;20526;-78
2023/06/16 10:32:54;;;;;;;3.97;2.85;;;25.40;37.90;;;;;;5134045;28;20131;-79
2023/06/16 10:35:21;;;;;;;3.78;3.13;;;25.40;39.00;;;;;;5133854;28;20130;-78
2023/06/16 10:37:52;;;;;;;4.82;2.45;;;25.50;38.20;;;;;;5116803;28;20081;-79
2023/06/16 10:40:22;;;;;;;6.95;2.90;;;25.50;37.40;;;;;;5116471;28;20126;-80
2023/06/16 10:42:52;;;;;;;4.65;3.45;;;25.50;37.20;;;;;;5135118;27;20507;-79
2023/06/16 10:45:28;;;;;;;3.13;2.80;;;25.60;38.30;;;;;;5138000;27;20070;-79
2023/06/16 10:47:56;;;;;;;3.35;3.05;;;25.70;38.30;;;;;;5121310;27;20039;-78
2023/06/16 10:50:40;;;;;;;3.55;2.80;;;25.80;38.80;;;;;;5138105;27;20035;-79
2023/06/16 10:53:19;;;;;;;3.88;2.90;;;25.90;38.30;;;;;;5121126;27;20083;-79
2023/06/16 10:55:45;;;;;;;4.53;2.67;;;25.90;38.10;;;;;;5121297;27;20130;-80
2023/06/16 10:58:14;;;;;;;4.20;3.45;;;26.10;38.00;;;;;;5103915;27;20479;-79
2023/06/16 11:00:44;;;;;;;3.55;3.13;;;26.10;37.20;;;;;;5138081;27;20113;-80
2023/06/16 11:03:10;;;;;;;3.92;2.90;;;26.20;36.50;;;;;;5120797;27;20035;-78
2023/06/16 11:05:39;;;;;;;4.53;2.75;;;26.10;37.30;;;;;;5106542;27;20050;-78
2023/06/16 11:08:16;;;;;;;5.60;3.15;;;26.10;36.40;;;;;;5106928;27;20043;-77
2023/06/16 11:10:50;;;;;;;3.58;2.88;;;25.90;36.10;;;;;;5108361;27;20033;-77
2023/06/16 11:13:26;;;;;;;6.38;2.78;;;25.80;36.30;;;;;;5126625;27;20047;-78
2023/06/16 11:15:56;;;;;;;5.30;2.50;;;25.80;36.40;;;;;;5108480;27;20040;-78
2023/06/16 11:18:26;;;;;;;2.92;2.60;;;25.80;36.70;;;;;;5102678;27;20135;-77
2023/06/16 11:21:00;;;;;;;2.88;2.58;;;25.80;36.10;;;;;;5127182;27;20054;-78
2023/06/16 11:23:26;;;;;;;4.50;3.03;;;25.90;36.30;;;;;;5107696;27;20051;-77
2023/06/16 11:26:21;;;;;;;3.58;2.90;;;26.00;35.70;;;;;;5122486;27;20040;-78
2023/06/16 11:28:48;;;;;;;4.57;3.00;;;26.10;35.00;;;;;;5109141;27;20099;-77
2023/06/16 11:31:14;;;;;;;4.72;2.78;;;26.20;34.80;;;;;;5122278;27;20550;-78
2023/06/16 11:33:40;;;;;;;4.38;2.83;;;26.30;35.70;;;;;;5120987;27;20082;-77
2023/06/16 11:36:16;;;;;;;8.27;2.97;;;26.30;35.00;;;;;;5087519;27;20047;-78
2023/06/16 11:38:44;;;;;;;4.93;2.83;;;26.40;34.90;;;;;;5122521;27;20532;-78
2023/06/16 11:41:18;;;;;;;5.75;3.17;;;26.50;34.70;;;;;;5121229;27;20069;-78
2023/06/16 11:43:44;;;;;;;3.80;2.67;;;26.60;34.90;;;;;;5085446;27;20151;-78
2023/06/16 11:46:10;;;;;;;4.93;2.70;;;26.80;34.60;;;;;;5105942;27;20134;-78
2023/06/16 11:48:37;;;;;;;3.80;2.70;;;26.90;34.70;;;;;;5106056;27;20558;-78
2023/06/16 11:51:05;;;;;;;6.07;3.30;;;26.90;33.00;;;;;;5101756;27;20096;-78
2023/06/16 11:53:32;;;;;;;4.05;2.10;;;27.00;34.50;;;;;;5102783;27;20047;-78
2023/06/16 11:55:59;;;;;;;6.80;3.70;;;27.10;33.70;;;;;;5100090;27;20127;-78
2023/06/16 11:58:27;;;;;;;3.08;2.55;;;27.20;33.70;;;;;;5105571;27;20551;-78
2023/06/16 12:01:00;;;;;;;3.50;2.65;;;27.20;33.20;;;;;;5100188;27;20051;-79
2023/06/16 12:03:33;;;;;;;2.88;2.30;;;27.30;33.40;;;;;;5104012;27;20047;-78
2023/06/16 12:06:05;;;;;;;4.53;2.95;;;27.30;32.70;;;;;;5119690;27;20101;-77
2023/06/16 12:08:52;;;;;;;7.50;2.78;;;27.30;32.70;;;;;;5114907;27;20065;-78
2023/06/16 12:11:27;;;;;;;4.28;2.80;;;27.30;32.60;;;;;;5119257;27;20035;-78
2023/06/16 12:13:54;;;;;;;2.78;2.47;;;27.40;33.40;;;;;;5115746;27;20031;-78
2023/06/16 12:16:20;;;;;;;5.55;2.60;;;27.60;33.50;;;;;;5099626;27;20042;-78
2023/06/16 12:18:49;;;;;;;3.63;2.70;;;27.80;32.20;;;;;;5117725;27;20043;-78
2023/06/16 12:21:16;;;;;;;4.45;2.60;;;27.80;31.40;;;;;;5120323;27;20088;-78
2023/06/16 12:23:58;;;;;;;3.90;2.55;;;27.80;31.60;;;;;;5120199;27;20062;-78
2023/06/16 12:26:33;;;;;;;4.13;2.50;;;27.70;32.00;;;;;;5113881;27;20046;-78
2023/06/16 12:29:01;;;;;;;5.07;2.88;;;27.60;31.80;;;;;;5127186;27;20046;-78
2023/06/16 12:31:28;;;;;;;9.70;3.90;;;27.60;32.10;;;;;;5135089;27;20042;-79
2023/06/16 12:33:56;;;;;;;5.78;3.05;;;27.70;32.50;;;;;;5135235;27;20045;-77
2023/06/16 12:36:22;;;;;;;3.25;2.50;;;27.90;32.90;;;;;;5134088;27;20039;-77
2023/06/16 12:38:48;;;;;;;4.30;3.15;;;28.00;32.50;;;;;;5135659;27;20123;-79